Terminal Aerodrome Forecast
Issued by NWS Amarillo, TX

Home | Current Version | Previous Version | Text Only | Print | Product List | Glossary On
Versions: 1 2 3 4 5 6 7 8 9 10 11 12 13 14 15 16 17 18
000
FTUS44 KAMA 171400 AAB
TAFGUY
TAF AMD
KGUY 171416Z 1714/1812 05010KT 6SM -SHRA OVC015
      TEMPO 1714/1716 3SM -SHRA BR OVC007
     FM171800 09010KT P6SM BKN040=

USA.gov is the U.S. government's official web portal to all federal, state and local government web resources and services.